Time;durP1;ratioP1;P1;durP2;ratioP2;P2;SDS_P1;SDS_P2;PMS_P1;PMS_P2;Temp;Humidity;BMP_temperature;BMP_pressure;BME280_temperature;BME280_humidity;BME280_pressure;Samples;Min_cycle;Max_cycle;Signal;HPM_P1;HPM_P2
2021/05/29 00:00:59;;;;;;;;;;;;;;;9.20;82.35;95726.83;1820320;79;20161;-64
2021/05/29 00:03:26;;;;;;;;;;;;;;;9.27;82.35;95724.98;1820224;79;20470;-63
2021/05/29 00:05:53;;;;;;;;;;;;;;;9.25;81.83;95728.97;1820088;79;20145;-65
2021/05/29 00:08:21;;;;;;;;;;;;;;;9.27;81.90;95724.98;1820223;79;20137;-63
2021/05/29 00:10:50;;;;;;;;;;;;;;;9.31;81.67;95726.70;1820097;79;20141;-64
2021/05/29 00:13:18;;;;;;;;;;;;;;;9.24;81.49;95721.08;1820040;79;20146;-64
2021/05/29 00:15:45;;;;;;;;;;;;;;;9.15;81.50;95720.75;1820325;79;20157;-63
2021/05/29 00:18:11;;;;;;;;;;;;;;;9.13;82.03;95717.70;1819021;79;20209;-63
2021/05/29 00:20:39;;;;;;;;;;;;;;;9.04;82.02;95725.23;1814749;79;20152;-63
2021/05/29 00:23:11;;;;;;;;;;;;;;;8.92;82.32;95722.73;1814474;79;20145;-63
2021/05/29 00:25:39;;;;;;;;;;;;;;;8.87;82.51;95718.85;1813659;79;21028;-63
2021/05/29 00:28:06;;;;;;;;;;;;;;;8.71;83.75;95725.13;1814408;79;20153;-63
2021/05/29 00:30:32;;;;;;;;;;;;;;;8.62;83.96;95728.73;1814493;79;20141;-64
2021/05/29 00:32:59;;;;;;;;;;;;;;;8.58;84.10;95727.00;1814564;79;20126;-64
2021/05/29 00:35:25;;;;;;;;;;;;;;;8.54;83.55;95727.48;1814380;79;20201;-64
2021/05/29 00:37:52;;;;;;;;;;;;;;;8.59;83.23;95728.32;1814487;79;20137;-63
2021/05/29 00:40:18;;;;;;;;;;;;;;;8.59;82.88;95731.36;1814389;79;20201;-63
2021/05/29 00:42:45;;;;;;;;;;;;;;;8.61;82.93;95733.55;1814308;79;20161;-64
2021/05/29 00:45:12;;;;;;;;;;;;;;;8.56;83.03;95732.27;1814330;79;20137;-64
2021/05/29 00:47:38;;;;;;;;;;;;;;;8.49;83.60;95737.14;1814485;79;20462;-64
2021/05/29 00:50:08;;;;;;;;;;;;;;;8.46;83.76;95733.23;1814460;79;20150;-63
2021/05/29 00:52:35;;;;;;;;;;;;;;;8.42;83.68;95731.08;1814454;79;20169;-64
2021/05/29 00:55:05;;;;;;;;;;;;;;;8.43;84.66;95734.58;1814373;79;20162;-63
2021/05/29 00:57:31;;;;;;;;;;;;;;;8.47;84.93;95729.73;1814380;79;20224;-63
2021/05/29 00:59:58;;;;;;;;;;;;;;;8.53;84.32;95730.12;1814524;79;20137;-65
2021/05/29 01:02:24;;;;;;;;;;;;;;;8.55;84.14;95722.64;1814429;79;20173;-63
2021/05/29 01:04:51;;;;;;;;;;;;;;;8.64;84.40;95721.67;1814355;79;20474;-63
2021/05/29 01:07:18;;;;;;;;;;;;;;;8.71;85.02;95719.88;1814357;79;20161;-64
2021/05/29 01:09:45;;;;;;;;;;;;;;;8.79;85.19;95714.95;1814461;79;20150;-63
2021/05/29 01:12:14;;;;;;;;;;;;;;;8.87;85.28;95714.91;1814505;79;20137;-64
2021/05/29 01:14:47;;;;;;;;;;;;;;;8.99;84.83;95711.25;1814223;79;20146;-64
2021/05/29 01:17:09;;;;;;;;;;;;;;;9.02;84.69;95713.43;1813990;79;20180;-63
2021/05/29 01:19:36;;;;;;;;;;;;;;;9.07;84.18;95705.04;1818268;79;20177;-64
2021/05/29 01:22:07;;;;;;;;;;;;;;;9.05;84.22;95698.91;1820193;79;20153;-64
2021/05/29 01:24:34;;;;;;;;;;;;;;;9.06;84.38;95701.96;1819512;79;20470;-64
2021/05/29 01:27:01;;;;;;;;;;;;;;;9.09;83.93;95695.34;1820187;79;20160;-63
2021/05/29 01:29:28;;;;;;;;;;;;;;;9.18;83.78;95698.78;1819827;79;20153;-64
2021/05/29 01:32:04;;;;;;;;;;;;;;;9.23;83.40;95694.33;1820155;79;20129;-63
2021/05/29 01:34:33;;;;;;;;;;;;;;;9.24;83.23;95692.98;1820407;79;20177;-63
2021/05/29 01:37:03;;;;;;;;;;;;;;;9.21;83.17;95692.16;1819370;79;20157;-63
2021/05/29 01:39:30;;;;;;;;;;;;;;;9.11;84.08;95699.28;1820196;79;20137;-63
2021/05/29 01:41:58;;;;;;;;;;;;;;;9.22;84.23;95707.05;1820255;79;20181;-64
2021/05/29 01:44:25;;;;;;;;;;;;;;;9.30;83.84;95703.45;1819730;79;20176;-64
2021/05/29 01:46:53;;;;;;;;;;;;;;;9.38;83.62;95704.67;1820172;79;20153;-64
2021/05/29 01:49:20;;;;;;;;;;;;;;;9.46;83.53;95709.85;1820209;79;20502;-64
2021/05/29 01:51:46;;;;;;;;;;;;;;;9.48;83.21;95702.80;1820311;79;20176;-63
2021/05/29 01:54:16;;;;;;;;;;;;;;;9.42;82.93;95706.81;1820455;79;20157;-64
2021/05/29 01:56:43;;;;;;;;;;;;;;;9.45;83.34;95706.35;1820319;79;20181;-64
2021/05/29 01:59:09;;;;;;;;;;;;;;;9.53;83.85;95708.44;1820088;79;20180;-64
2021/05/29 02:01:36;;;;;;;;;;;;;;;9.54;83.76;95706.66;1820296;79;20473;-64
2021/05/29 02:04:03;;;;;;;;;;;;;;;9.49;83.76;95703.22;1820080;79;20172;-64
2021/05/29 02:06:29;;;;;;;;;;;;;;;9.53;83.64;95706.25;1820235;79;20165;-63
2021/05/29 02:08:56;;;;;;;;;;;;;;;9.55;83.21;95701.84;1820344;79;20141;-63
2021/05/29 02:11:22;;;;;;;;;;;;;;;9.56;83.24;95704.02;1820325;79;20529;-63
2021/05/29 02:13:49;;;;;;;;;;;;;;;9.60;83.56;95701.34;1820150;79;20169;-64
2021/05/29 02:16:15;;;;;;;;;;;;;;;9.57;83.60;95702.66;1820524;79;20145;-63
2021/05/29 02:18:42;;;;;;;;;;;;;;;9.61;83.67;95699.11;1820133;79;20137;-64
2021/05/29 02:21:10;;;;;;;;;;;;;;;9.71;83.54;95695.46;1820403;79;20189;-63
2021/05/29 02:23:46;;;;;;;;;;;;;;;9.80;83.23;95696.22;1820250;79;20161;-63
2021/05/29 02:26:15;;;;;;;;;;;;;;;9.78;82.99;95697.58;1820257;79;20164;-64
2021/05/29 02:28:43;;;;;;;;;;;;;;;9.76;83.45;95699.36;1820118;79;20165;-64
2021/05/29 02:31:11;;;;;;;;;;;;;;;9.72;83.73;95693.23;1820324;79;20149;-64
2021/05/29 02:33:38;;;;;;;;;;;;;;;9.66;84.33;95695.97;1820283;79;20462;-63
2021/05/29 02:36:06;;;;;;;;;;;;;;;9.64;84.31;95695.56;1820266;79;20145;-63
2021/05/29 02:38:36;;;;;;;;;;;;;;;9.63;83.94;95695.16;1793128;79;20213;-63
2021/05/29 02:41:09;;;;;;;;;;;;;;;9.59;84.46;95695.63;1793098;79;20197;-63
2021/05/29 02:43:36;;;;;;;;;;;;;;;9.64;84.52;95692.48;1820016;79;20129;-64
2021/05/29 02:46:03;;;;;;;;;;;;;;;9.72;84.54;95694.56;1820302;79;20168;-63
2021/05/29 02:48:29;;;;;;;;;;;;;;;9.87;84.14;95697.43;1820384;79;20157;-63
2021/05/29 02:50:55;;;;;;;;;;;;;;;9.88;83.57;95700.51;1820386;79;20176;-63
2021/05/29 02:53:22;;;;;;;;;;;;;;;9.91;83.12;95703.55;1820122;79;20501;-64
2021/05/29 02:55:48;;;;;;;;;;;;;;;9.91;82.70;95700.91;1820247;79;20168;-65
2021/05/29 02:58:15;;;;;;;;;;;;;;;9.87;82.42;95698.75;1820239;79;20177;-65
2021/05/29 03:00:44;;;;;;;;;;;;;;;9.85;82.51;95698.34;1820268;79;20465;-64
2021/05/29 03:03:11;;;;;;;;;;;;;;;9.78;83.08;95701.53;1820090;79;20153;-64
2021/05/29 03:05:39;;;;;;;;;;;;;;;9.67;83.69;95699.02;1820252;79;20164;-64
2021/05/29 03:08:07;;;;;;;;;;;;;;;9.60;83.64;95705.28;1820291;79;20126;-64
2021/05/29 03:10:34;;;;;;;;;;;;;;;9.52;84.37;95705.80;1820270;79;20144;-63
2021/05/29 03:13:00;;;;;;;;;;;;;;;9.47;84.80;95705.00;1820261;79;20141;-64
2021/05/29 03:15:28;;;;;;;;;;;;;;;9.39;85.76;95703.77;1819963;79;20149;-63
2021/05/29 03:17:55;;;;;;;;;;;;;;;9.40;85.70;95705.53;1820263;79;20494;-63
2021/05/29 03:20:24;;;;;;;;;;;;;;;9.41;85.78;95711.67;1815518;79;20172;-64
2021/05/29 03:22:51;;;;;;;;;;;;;;;9.41;85.12;95707.72;1814613;79;20162;-64
2021/05/29 03:25:17;;;;;;;;;;;;;;;9.38;85.09;95711.27;1814542;79;20177;-63
2021/05/29 03:27:46;;;;;;;;;;;;;;;9.42;85.78;95712.95;1814481;79;20126;-64
2021/05/29 03:30:15;;;;;;;;;;;;;;;9.50;85.32;95708.48;1814379;79;20137;-63
2021/05/29 03:32:42;;;;;;;;;;;;;;;9.61;84.91;95706.16;1814505;79;20533;-65
2021/05/29 03:35:10;;;;;;;;;;;;;;;9.62;85.03;95707.43;1814285;79;20506;-64
2021/05/29 03:37:37;;;;;;;;;;;;;;;9.61;85.60;95703.06;1814946;79;20161;-65
2021/05/29 03:40:08;;;;;;;;;;;;;;;9.64;85.10;95696.88;1814552;79;20153;-63
2021/05/29 03:42:35;;;;;;;;;;;;;;;9.65;84.65;95701.25;1814312;79;20173;-63
2021/05/29 03:45:01;;;;;;;;;;;;;;;9.67;84.37;95697.70;1814580;79;20157;-63
2021/05/29 03:47:27;;;;;;;;;;;;;;;9.72;84.44;95701.14;1814542;79;20125;-63
2021/05/29 03:49:54;;;;;;;;;;;;;;;9.69;84.62;95699.88;1814426;79;20566;-63
2021/05/29 03:52:20;;;;;;;;;;;;;;;9.79;84.48;95699.77;1814653;79;20145;-63
2021/05/29 03:54:46;;;;;;;;;;;;;;;9.85;84.36;95699.24;1814726;79;20149;-63
2021/05/29 03:57:12;;;;;;;;;;;;;;;9.99;84.37;95696.84;1814492;79;20489;-64
2021/05/29 03:59:39;;;;;;;;;;;;;;;10.08;83.85;95703.28;1814346;79;20137;-64
2021/05/29 04:02:05;;;;;;;;;;;;;;;10.14;83.63;95697.94;1814584;79;20495;-64
2021/05/29 04:04:31;;;;;;;;;;;;;;;10.23;83.67;95699.12;1814425;79;20152;-64
2021/05/29 04:07:00;;;;;;;;;;;;;;;10.29;83.12;95697.72;1814491;79;20142;-63
2021/05/29 04:09:26;;;;;;;;;;;;;;;10.38;83.04;95689.67;1814519;79;20161;-66
2021/05/29 04:11:52;;;;;;;;;;;;;;;10.46;82.79;95694.83;1814467;79;20157;-64
2021/05/29 04:14:19;;;;;;;;;;;;;;;10.58;82.59;95686.70;1814357;79;20148;-64
2021/05/29 04:16:45;;;;;;;;;;;;;;;10.66;82.48;95685.25;1814393;79;20320;-65
2021/05/29 04:19:11;;;;;;;;;;;;;;;10.75;81.28;95687.70;1814436;79;20169;-64
2021/05/29 04:21:38;;;;;;;;;;;;;;;10.80;80.79;95684.99;1814508;79;20172;-64
2021/05/29 04:24:05;;;;;;;;;;;;;;;10.85;81.56;95677.00;1814359;79;20153;-63
2021/05/29 04:26:32;;;;;;;;;;;;;;;10.84;81.86;95670.85;1814402;79;20137;-63
2021/05/29 04:28:58;;;;;;;;;;;;;;;10.93;81.56;95679.03;1814335;79;20157;-64
2021/05/29 04:31:24;;;;;;;;;;;;;;;11.00;81.79;95673.61;1814419;79;20141;-64
2021/05/29 04:33:51;;;;;;;;;;;;;;;11.01;81.52;95678.44;1814495;79;20148;-64
2021/05/29 04:36:17;;;;;;;;;;;;;;;11.02;81.68;95676.23;1814367;79;20146;-63
2021/05/29 04:38:44;;;;;;;;;;;;;;;11.08;81.63;95673.47;1814369;79;20501;-63
2021/05/29 04:41:10;;;;;;;;;;;;;;;11.13;81.81;95669.42;1814601;79;20133;-64
2021/05/29 04:43:37;;;;;;;;;;;;;;;11.13;81.40;95673.38;1814529;79;20168;-65
2021/05/29 04:46:03;;;;;;;;;;;;;;;11.10;82.00;95671.67;1814400;79;20150;-64
2021/05/29 04:48:30;;;;;;;;;;;;;;;11.13;82.18;95672.06;1814310;79;20481;-64
2021/05/29 04:51:12;;;;;;;;;;;;;;;11.13;82.03;95670.73;1814468;79;20137;-64
2021/05/29 04:53:40;;;;;;;;;;;;;;;11.13;82.07;95668.96;1814422;79;20493;-64
2021/05/29 04:56:07;;;;;;;;;;;;;;;11.18;82.55;95672.38;1814464;79;20510;-64
2021/05/29 04:58:34;;;;;;;;;;;;;;;11.25;82.35;95670.50;1814359;79;20482;-65
2021/05/29 05:01:00;;;;;;;;;;;;;;;11.28;82.24;95669.57;1814172;79;20142;-63
2021/05/29 05:03:26;;;;;;;;;;;;;;;11.26;81.27;95672.23;1814190;79;20142;-63
2021/05/29 05:05:53;;;;;;;;;;;;;;;11.29;81.10;95667.34;1814437;79;20188;-63
2021/05/29 05:08:19;;;;;;;;;;;;;;;11.37;81.04;95671.58;1814485;79;20513;-63
2021/05/29 05:10:45;;;;;;;;;;;;;;;11.47;81.73;95663.02;1814553;79;20150;-63
2021/05/29 05:13:12;;;;;;;;;;;;;;;11.63;82.05;95666.20;1814491;79;20161;-64
2021/05/29 05:15:38;;;;;;;;;;;;;;;11.81;82.32;95667.56;1814363;79;20169;-63
2021/05/29 05:18:07;;;;;;;;;;;;;;;11.89;80.99;95668.28;1814511;79;20142;-64
2021/05/29 05:20:34;;;;;;;;;;;;;;;12.08;80.96;95669.61;1817643;79;20157;-64
2021/05/29 05:23:00;;;;;;;;;;;;;;;12.25;80.47;95669.69;1820152;79;20161;-64
2021/05/29 05:25:27;;;;;;;;;;;;;;;12.45;80.28;95664.77;1820288;79;20461;-64
2021/05/29 05:27:54;;;;;;;;;;;;;;;12.62;78.95;95661.68;1820222;79;20152;-64
2021/05/29 05:30:22;;;;;;;;;;;;;;;12.77;79.59;95657.77;1820229;79;20156;-64
2021/05/29 05:32:49;;;;;;;;;;;;;;;12.91;79.18;95649.48;1820215;79;20187;-63
2021/05/29 05:35:16;;;;;;;;;;;;;;;13.06;78.70;95647.73;1820183;79;20133;-63
2021/05/29 05:37:44;;;;;;;;;;;;;;;13.25;79.30;95646.75;1820251;79;20493;-63
2021/05/29 05:40:12;;;;;;;;;;;;;;;13.42;77.89;95642.34;1820381;79;20148;-63
2021/05/29 05:42:38;;;;;;;;;;;;;;;13.53;76.63;95645.99;1820097;79;20235;-63
2021/05/29 05:45:06;;;;;;;;;;;;;;;13.60;75.43;95637.81;1820312;79;20153;-63
2021/05/29 05:47:33;;;;;;;;;;;;;;;13.70;74.75;95643.72;1820345;79;20482;-63
2021/05/29 05:50:00;;;;;;;;;;;;;;;13.82;74.46;95643.34;1820251;79;20141;-63
2021/05/29 05:52:27;;;;;;;;;;;;;;;13.95;75.27;95642.52;1820450;79;20177;-65
2021/05/29 05:54:53;;;;;;;;;;;;;;;14.10;75.16;95640.30;1819838;79;20157;-64
2021/05/29 05:57:19;;;;;;;;;;;;;;;14.18;75.68;95647.09;1820303;79;20153;-65
2021/05/29 05:59:46;;;;;;;;;;;;;;;14.28;76.11;95644.55;1820338;79;20128;-64
2021/05/29 06:02:12;;;;;;;;;;;;;;;14.36;74.06;95645.62;1820135;79;20141;-64
2021/05/29 06:04:38;;;;;;;;;;;;;;;14.46;73.25;95639.56;1820292;79;20153;-63
2021/05/29 06:07:04;;;;;;;;;;;;;;;14.59;73.81;95636.96;1820403;79;20149;-63
2021/05/29 06:09:30;;;;;;;;;;;;;;;14.71;74.00;95645.81;1820225;79;20173;-63
2021/05/29 06:11:57;;;;;;;;;;;;;;;14.85;74.02;95638.72;1820377;79;20137;-64
2021/05/29 06:19:55;;;;;;;;;;;;;;;15.10;72.47;95638.73;1820364;79;20137;-64
2021/05/29 06:22:22;;;;;;;;;;;;;;;15.13;71.11;95638.61;1820549;79;20145;-64
2021/05/29 06:24:48;;;;;;;;;;;;;;;15.25;71.22;95633.33;1820033;79;20478;-64
2021/05/29 06:27:14;;;;;;;;;;;;;;;15.33;69.49;95641.02;1820385;79;20161;-64
2021/05/29 06:29:41;;;;;;;;;;;;;;;15.42;69.87;95638.47;1820252;79;20140;-64
2021/05/29 06:32:08;;;;;;;;;;;;;;;15.49;69.29;95634.66;1820034;79;20504;-64
2021/05/29 06:34:34;;;;;;;;;;;;;;;15.57;69.39;95633.91;1820296;79;20140;-64
2021/05/29 06:37:00;;;;;;;;;;;;;;;15.62;67.02;95629.28;1820042;79;20145;-64
2021/05/29 06:39:27;;;;;;;;;;;;;;;15.70;65.99;95633.02;1820309;79;20141;-64
2021/05/29 06:41:53;;;;;;;;;;;;;;;15.72;66.55;95635.16;1820469;79;20157;-63
2021/05/29 06:44:19;;;;;;;;;;;;;;;15.82;66.27;95641.00;1820008;79;20478;-64
2021/05/29 06:46:45;;;;;;;;;;;;;;;15.86;64.90;95644.82;1820040;79;20173;-63
2021/05/29 06:49:14;;;;;;;;;;;;;;;15.87;65.40;95642.55;1820180;79;20141;-63
2021/05/29 06:51:53;;;;;;;;;;;;;;;15.93;64.52;95636.15;1820186;79;20494;-64
2021/05/29 06:59:34;;;;;;;;;;;;;;;16.23;62.21;95626.94;1820143;79;20157;-65
2021/05/29 07:02:00;;;;;;;;;;;;;;;16.41;64.38;95623.13;1820358;79;20485;-64
2021/05/29 07:04:26;;;;;;;;;;;;;;;16.43;61.44;95630.60;1820194;79;20153;-64
2021/05/29 07:06:53;;;;;;;;;;;;;;;16.46;62.31;95625.14;1820052;79;20497;-63
2021/05/29 07:09:20;;;;;;;;;;;;;;;16.60;62.00;95620.09;1820117;79;20209;-64
2021/05/29 07:11:47;;;;;;;;;;;;;;;16.90;61.62;95620.23;1820149;79;20164;-63
2021/05/29 07:14:14;;;;;;;;;;;;;;;17.02;59.78;95611.23;1820345;79;20140;-63
2021/05/29 07:16:42;;;;;;;;;;;;;;;17.11;60.44;95611.76;1820054;79;20133;-63
2021/05/29 07:19:09;;;;;;;;;;;;;;;17.16;61.90;95609.75;1820195;79;20177;-63
2021/05/29 07:21:38;;;;;;;;;;;;;;;17.17;60.28;95612.36;1815798;79;20161;-63
2021/05/29 07:24:05;;;;;;;;;;;;;;;17.18;59.04;95607.89;1814406;79;20152;-63
2021/05/29 07:26:32;;;;;;;;;;;;;;;17.25;60.35;95616.02;1814197;79;20169;-63
2021/05/29 07:28:58;;;;;;;;;;;;;;;17.43;60.74;95610.33;1814501;79;20580;-63
2021/05/29 07:31:25;;;;;;;;;;;;;;;17.60;59.97;95615.77;1814535;79;20470;-64
2021/05/29 07:33:53;;;;;;;;;;;;;;;17.62;59.90;95609.89;1814613;79;20169;-64
2021/05/29 07:36:20;;;;;;;;;;;;;;;17.64;59.37;95618.70;1814647;79;20157;-63
2021/05/29 07:38:46;;;;;;;;;;;;;;;17.52;58.12;95619.26;1814502;79;20141;-63
2021/05/29 07:41:13;;;;;;;;;;;;;;;17.41;58.15;95615.75;1814443;79;20157;-64
2021/05/29 07:43:40;;;;;;;;;;;;;;;17.34;58.25;95622.30;1814565;79;20469;-63
2021/05/29 07:46:06;;;;;;;;;;;;;;;17.34;58.33;95616.06;1814273;79;20173;-63
2021/05/29 07:48:33;;;;;;;;;;;;;;;17.30;57.68;95618.02;1814412;79;20451;-63
2021/05/29 07:51:03;;;;;;;;;;;;;;;17.32;58.54;95615.30;1814577;79;20177;-64
2021/05/29 07:53:34;;;;;;;;;;;;;;;17.37;58.46;95614.14;1814513;79;20121;-64
2021/05/29 07:56:03;;;;;;;;;;;;;;;17.44;58.38;95620.08;1814577;79;20177;-64
2021/05/29 07:58:30;;;;;;;;;;;;;;;17.44;57.23;95618.27;1814507;79;20498;-63
2021/05/29 08:00:57;;;;;;;;;;;;;;;17.53;57.77;95623.17;1814360;79;20145;-63
2021/05/29 08:03:26;;;;;;;;;;;;;;;17.58;55.73;95619.44;1814505;79;20121;-63
2021/05/29 08:05:54;;;;;;;;;;;;;;;17.66;55.59;95624.81;1814384;79;20141;-63
2021/05/29 08:08:24;;;;;;;;;;;;;;;17.79;54.63;95623.80;1814377;79;20650;-64
2021/05/29 08:10:52;;;;;;;;;;;;;;;17.83;52.63;95624.55;1814034;79;20136;-63
2021/05/29 08:13:20;;;;;;;;;;;;;;;17.85;53.60;95628.88;1814409;79;20189;-63
2021/05/29 08:15:48;;;;;;;;;;;;;;;17.85;53.87;95620.87;1813952;79;20522;-63
2021/05/29 08:18:17;;;;;;;;;;;;;;;17.91;53.84;95624.56;1814505;79;20160;-64
2021/05/29 08:20:45;;;;;;;;;;;;;;;17.95;54.34;95615.49;1814483;79;20145;-64
2021/05/29 08:23:12;;;;;;;;;;;;;;;18.03;54.76;95620.47;1814300;79;20141;-64
2021/05/29 08:25:40;;;;;;;;;;;;;;;18.07;54.42;95613.20;1814401;79;20517;-64
2021/05/29 08:28:07;;;;;;;;;;;;;;;18.06;53.77;95620.31;1813536;79;20458;-64
2021/05/29 08:30:34;;;;;;;;;;;;;;;18.01;53.28;95626.81;1813850;79;20136;-64
2021/05/29 08:33:01;;;;;;;;;;;;;;;18.03;54.42;95619.13;1814352;79;20501;-63
2021/05/29 08:35:28;;;;;;;;;;;;;;;18.09;55.10;95629.98;1814495;79;20141;-64
2021/05/29 08:37:55;;;;;;;;;;;;;;;18.04;54.24;95626.66;1814275;79;20154;-63
2021/05/29 08:40:22;;;;;;;;;;;;;;;18.11;54.79;95630.78;1814346;79;20153;-63
2021/05/29 08:42:48;;;;;;;;;;;;;;;18.12;54.95;95631.20;1814566;79;20153;-63
2021/05/29 08:45:16;;;;;;;;;;;;;;;18.24;55.00;95633.73;1814206;79;20518;-64
2021/05/29 08:47:44;;;;;;;;;;;;;;;18.37;54.07;95629.55;1814505;79;20157;-63
2021/05/29 08:50:11;;;;;;;;;;;;;;;18.41;54.94;95631.11;1814281;79;20165;-65
2021/05/29 08:52:39;;;;;;;;;;;;;;;18.59;54.67;95629.33;1814493;79;20137;-64
2021/05/29 08:55:09;;;;;;;;;;;;;;;18.79;55.19;95634.58;1814557;79;20157;-64
2021/05/29 08:57:36;;;;;;;;;;;;;;;18.98;53.87;95639.88;1814025;79;20153;-64
2021/05/29 09:00:05;;;;;;;;;;;;;;;18.90;51.63;95641.19;1814664;79;20134;-64
2021/05/29 09:02:31;;;;;;;;;;;;;;;18.87;53.06;95638.67;1814391;79;20164;-64
2021/05/29 09:05:09;;;;;;;;;;;;;;;18.83;53.21;95639.31;1814594;79;20122;-63
2021/05/29 09:07:36;;;;;;;;;;;;;;;18.75;53.32;95634.36;1814653;79;20168;-63
2021/05/29 09:10:19;;;;;;;;;;;;;;;18.74;52.45;95634.39;1814629;79;20183;-63
2021/05/29 09:13:11;;;;;;;;;;;;;;;18.81;52.44;95635.38;1814426;79;20512;-63
2021/05/29 09:15:57;;;;;;;;;;;;;;;18.91;51.84;95633.58;1814565;79;20533;-63
2021/05/29 09:18:30;;;;;;;;;;;;;;;19.00;52.14;95633.13;1795270;79;20482;-64
2021/05/29 09:21:25;;;;;;;;;;;;;;;18.97;54.24;95626.09;1814496;79;20482;-64
2021/05/29 09:24:01;;;;;;;;;;;;;;;18.86;51.23;95635.63;1814756;79;20157;-65
2021/05/29 09:26:48;;;;;;;;;;;;;;;18.82;53.23;95634.89;1814730;79;20146;-64
2021/05/29 09:29:28;;;;;;;;;;;;;;;18.80;53.21;95631.45;1814627;79;20485;-64
2021/05/29 09:32:08;;;;;;;;;;;;;;;18.77;53.10;95632.92;1814544;79;20494;-64
2021/05/29 09:34:42;;;;;;;;;;;;;;;18.60;52.21;95631.08;1824769;78;20164;-64
2021/05/29 09:37:16;;;;;;;;;;;;;;;18.57;53.79;95633.44;1833500;78;20152;-64
2021/05/29 09:39:45;;;;;;;;;;;;;;;18.65;53.90;95636.17;1833298;78;20140;-64
2021/05/29 09:42:13;;;;;;;;;;;;;;;18.69;53.34;95629.27;1833326;78;20125;-64
2021/05/29 09:44:40;;;;;;;;;;;;;;;18.61;53.10;95624.78;1827962;78;20502;-64
2021/05/29 09:47:09;;;;;;;;;;;;;;;18.51;53.26;95629.71;1800167;80;20159;-64
2021/05/29 09:49:55;;;;;;;;;;;;;;;18.39;53.96;95631.64;1773880;78;20139;-64
2021/05/29 09:52:26;;;;;;;;;;;;;;;18.36;54.06;95637.14;1833328;78;20161;-63
2021/05/29 09:54:53;;;;;;;;;;;;;;;18.09;53.97;95637.98;1833206;78;20148;-63
2021/05/29 09:57:20;;;;;;;;;;;;;;;17.89;54.62;95635.81;1833312;78;20144;-63
2021/05/29 10:00:05;;;;;;;;;;;;;;;17.78;54.84;95639.88;1833439;78;20121;-63
2021/05/29 10:02:32;;;;;;;;;;;;;;;17.74;55.44;95637.36;1833261;78;20156;-63
2021/05/29 10:04:58;;;;;;;;;;;;;;;17.85;56.26;95633.35;1833366;78;20195;-63
2021/05/29 10:07:39;;;;;;;;;;;;;;;17.92;56.32;95624.13;1833392;78;20141;-64
2021/05/29 10:10:07;;;;;;;;;;;;;;;17.98;55.66;95627.83;1833578;78;20140;-64
2021/05/29 10:12:33;;;;;;;;;;;;;;;17.94;54.93;95636.47;1801584;78;20137;-64
2021/05/29 10:15:00;;;;;;;;;;;;;;;17.85;55.09;95636.02;1833161;78;20152;-64
2021/05/29 10:17:27;;;;;;;;;;;;;;;17.78;56.05;95635.40;1833326;78;20153;-64
2021/05/29 10:19:54;;;;;;;;;;;;;;;17.64;55.28;95632.48;1833350;78;20133;-64
2021/05/29 10:22:21;;;;;;;;;;;;;;;17.58;55.78;95635.45;1823154;78;20172;-64
2021/05/29 10:24:47;;;;;;;;;;;;;;;17.50;55.86;95636.66;1820181;79;20133;-63
2021/05/29 10:27:19;;;;;;;;;;;;;;;17.43;55.85;95637.00;1820338;79;20145;-63
2021/05/29 10:29:44;;;;;;;;;;;;;;;17.45;56.08;95636.00;1819909;79;20156;-63
2021/05/29 10:32:19;;;;;;;;;;;;;;;17.43;53.41;95640.53;1820167;79;20141;-63
2021/05/29 10:35:06;;;;;;;;;;;;;;;17.50;53.38;95639.80;1820254;79;20458;-63
2021/05/29 10:37:38;;;;;;;;;;;;;;;17.38;53.06;95638.53;1819877;79;20136;-63
2021/05/29 10:40:25;;;;;;;;;;;;;;;17.23;54.14;95637.88;1820344;79;20185;-63
2021/05/29 10:43:09;;;;;;;;;;;;;;;17.07;54.39;95644.36;1820047;79;20160;-65
2021/05/29 10:45:37;;;;;;;;;;;;;;;16.93;54.77;95646.27;1820202;79;20149;-64
2021/05/29 10:48:14;;;;;;;;;;;;;;;16.68;55.05;95654.40;1820163;79;20486;-64
2021/05/29 10:50:58;;;;;;;;;;;;;;;16.55;55.75;95655.38;1820064;79;20547;-64
2021/05/29 10:53:44;;;;;;;;;;;;;;;16.46;58.76;95657.57;1820298;79;20165;-63
2021/05/29 10:56:23;;;;;;;;;;;;;;;16.41;58.20;95655.95;1820409;79;20133;-63
2021/05/29 10:59:14;;;;;;;;;;;;;;;16.42;59.34;95655.48;1820170;79;20125;-63
2021/05/29 11:01:51;;;;;;;;;;;;;;;16.46;60.10;95652.25;1820067;79;20516;-63
2021/05/29 11:04:19;;;;;;;;;;;;;;;16.63;60.30;95642.63;1818645;79;20137;-63
2021/05/29 11:06:48;;;;;;;;;;;;;;;17.02;59.34;95647.22;1820318;79;20176;-63
2021/05/29 11:09:18;;;;;;;;;;;;;;;17.40;58.15;95646.48;1820153;79;20137;-63
2021/05/29 11:11:50;;;;;;;;;;;;;;;17.72;56.06;95639.70;1820165;79;20168;-63
2021/05/29 11:14:19;;;;;;;;;;;;;;;18.03;56.02;95629.81;1820390;79;20144;-64
2021/05/29 11:16:56;;;;;;;;;;;;;;;18.36;53.96;95636.67;1820159;79;20142;-64
2021/05/29 11:19:35;;;;;;;;;;;;;;;18.73;54.55;95632.67;1819916;79;20149;-63
2021/05/29 11:22:06;;;;;;;;;;;;;;;18.75;51.68;95627.67;1825571;78;20155;-63
2021/05/29 11:24:38;;;;;;;;;;;;;;;18.92;50.18;95629.47;1833132;78;20140;-64
2021/05/29 11:27:06;;;;;;;;;;;;;;;19.16;50.09;95627.36;1833394;78;20145;-64
2021/05/29 11:29:52;;;;;;;;;;;;;;;19.25;46.25;95626.00;1833235;78;20476;-64
2021/05/29 11:32:45;;;;;;;;;;;;;;;19.24;49.08;95626.48;1832934;78;20124;-64
2021/05/29 11:35:43;;;;;;;;;;;;;;;19.11;50.48;95630.75;1833184;78;20293;-64
2021/05/29 11:38:19;;;;;;;;;;;;;;;19.07;50.36;95621.62;1833481;78;20172;-64
2021/05/29 11:40:56;;;;;;;;;;;;;;;19.09;50.56;95621.93;1833119;78;20167;-64
2021/05/29 11:43:38;;;;;;;;;;;;;;;19.21;51.24;95621.78;1833343;78;20176;-64
2021/05/29 11:46:07;;;;;;;;;;;;;;;19.39;49.93;95614.59;1833048;78;20504;-63
2021/05/29 11:48:42;;;;;;;;;;;;;;;19.28;49.60;95619.63;1832192;78;20136;-63
2021/05/29 11:51:11;;;;;;;;;;;;;;;19.06;50.02;95621.23;1833282;78;20156;-63
2021/05/29 11:53:44;;;;;;;;;;;;;;;18.91;50.67;95621.07;1833057;78;20168;-63
2021/05/29 11:56:11;;;;;;;;;;;;;;;18.84;48.90;95617.45;1832539;78;20168;-63
2021/05/29 11:58:44;;;;;;;;;;;;;;;18.69;50.67;95621.73;1833113;78;20513;-63
2021/05/29 12:01:12;;;;;;;;;;;;;;;18.57;50.07;95625.87;1827219;78;20140;-64
2021/05/29 12:03:44;;;;;;;;;;;;;;;18.41;48.71;95624.42;1833161;78;20171;-64
2021/05/29 12:06:11;;;;;;;;;;;;;;;18.18;49.14;95624.21;1833250;78;20132;-64
2021/05/29 12:08:55;;;;;;;;;;;;;;;18.01;46.55;95625.48;1833237;78;20168;-64
2021/05/29 12:11:28;;;;;;;;;;;;;;;17.83;47.35;95634.75;1833153;78;20141;-64
2021/05/29 12:13:56;;;;;;;;;;;;;;;17.60;47.69;95632.25;1832104;78;20223;-64
2021/05/29 12:16:28;;;;;;;;;;;;;;;17.45;50.98;95633.33;1833248;78;20144;-63
2021/05/29 12:18:54;;;;;;;;;;;;;;;17.46;51.15;95632.86;1833177;78;20152;-63
2021/05/29 12:21:20;;;;;;;;;;;;;;;17.38;53.30;95629.20;1801173;78;20171;-63
2021/05/29 12:23:55;;;;;;;;;;;;;;;17.30;53.04;95625.55;1833200;78;20497;-63
2021/05/29 12:26:24;;;;;;;;;;;;;;;17.20;55.66;95626.89;1833368;78;20157;-63
2021/05/29 12:28:51;;;;;;;;;;;;;;;17.11;53.85;95625.09;1833078;78;20129;-63
2021/05/29 12:31:21;;;;;;;;;;;;;;;16.97;54.03;95629.70;1833217;78;20140;-63
2021/05/29 12:33:46;;;;;;;;;;;;;;;16.86;54.78;95635.50;1833082;78;20149;-64
2021/05/29 12:36:14;;;;;;;;;;;;;;;16.72;55.17;95640.03;1833141;78;20505;-64
2021/05/29 12:38:55;;;;;;;;;;;;;;;16.65;55.06;95646.54;1833535;78;20140;-64
2021/05/29 12:41:24;;;;;;;;;;;;;;;16.44;57.22;95653.62;1833260;78;20152;-64
2021/05/29 12:44:05;;;;;;;;;;;;;;;16.25;60.20;95663.27;1833141;78;20163;-64
2021/05/29 12:46:32;;;;;;;;;;;;;;;16.09;63.11;95672.34;1833457;78;20175;-63
2021/05/29 12:49:08;;;;;;;;;;;;;;;15.98;62.64;95670.96;1832999;78;20184;-63
2021/05/29 12:51:40;;;;;;;;;;;;;;;15.95;63.78;95668.42;1833190;78;20497;-63
2021/05/29 12:54:06;;;;;;;;;;;;;;;16.00;64.77;95665.13;1833199;78;20466;-63
2021/05/29 12:56:33;;;;;;;;;;;;;;;16.05;64.20;95668.05;1801208;78;20132;-63
2021/05/29 12:59:01;;;;;;;;;;;;;;;16.07;64.89;95669.72;1833304;78;20184;-64
2021/05/29 13:01:36;;;;;;;;;;;;;;;16.11;64.17;95671.34;1833343;78;20148;-63
2021/05/29 13:12:12;;;;;;;;;;;;;;;15.70;66.94;95668.92;1833139;78;20496;-64
2021/05/29 13:14:41;;;;;;;;;;;;;;;15.56;65.04;95668.09;1833204;78;20168;-64
2021/05/29 13:17:11;;;;;;;;;;;;;;;15.48;67.53;95662.20;1832705;78;20156;-64
2021/05/29 13:19:51;;;;;;;;;;;;;;;15.32;68.08;95660.09;1833228;78;20516;-63